createdAt,value
2022-11-14T00:03:14.815Z,75.01
2022-11-14T00:08:08.115Z,75.11
2022-11-14T00:10:35.818Z,75.21
2022-11-14T00:13:38.065Z,75.31
2022-11-14T00:15:07.149Z,75.21
2022-11-14T00:16:36.256Z,75.01
2022-11-14T00:19:04.526Z,75.56
2022-11-14T00:21:32.839Z,75.66
2022-11-14T00:24:29.111Z,75.52
2022-11-14T00:26:27.693Z,75.52
2022-11-14T00:28:27.098Z,75.42
2022-11-14T00:31:24.231Z,75.31
2022-11-14T00:37:45.961Z,75.35
2022-11-14T00:39:44.137Z,75.45
2022-11-14T00:41:13.115Z,75.35
2022-11-14T00:43:11.488Z,75.35
2022-11-14T00:47:37.190Z,75.45
2022-11-14T00:49:37.072Z,75.35
2022-11-14T00:53:33.341Z,75.45
2022-11-14T00:56:01.349Z,75.45
2022-11-14T01:00:27.105Z,75.76
2022-11-14T01:01:57.964Z,75.45
2022-11-14T01:06:56.293Z,75.66
2022-11-14T01:11:51.038Z,75.56
2022-11-14T01:13:49.378Z,75.45
2022-11-14T01:15:18.453Z,75.66
2022-11-14T01:17:45.909Z,75.45
2022-11-14T01:20:13.969Z,75.56
2022-11-14T01:22:41.719Z,75.79
2022-11-14T01:25:39.394Z,75.66
2022-11-14T01:28:07.167Z,75.45
2022-11-14T01:30:34.962Z,75.56
2022-11-14T01:32:04.199Z,75.45
2022-11-14T01:34:02.576Z,75.45
2022-11-14T01:36:00.897Z,75.45
2022-11-14T01:37:29.831Z,75.35
2022-11-14T01:45:48.842Z,75.49
2022-11-14T01:48:16.509Z,75.79
2022-11-14T01:51:13.442Z,75.90
2022-11-14T01:52:42.507Z,75.79
2022-11-14T01:54:12.407Z,75.69
2022-11-14T01:55:42.295Z,75.79
2022-11-14T01:57:42.178Z,75.79
2022-11-14T01:58:42.107Z,75.79
2022-11-14T01:59:42.123Z,75.49
2022-11-14T02:05:34.747Z,75.59
2022-11-14T02:12:30.852Z,75.59
2022-11-14T02:15:27.229Z,75.69
2022-11-14T02:23:46.313Z,75.73
2022-11-14T02:35:40.970Z,75.62
2022-11-14T02:37:39.156Z,75.52
2022-11-14T02:43:59.736Z,75.52
2022-11-14T02:46:26.981Z,75.42
2022-11-14T02:49:24.225Z,75.32
2022-11-14T02:51:22.516Z,75.52
2022-11-14T02:53:20.796Z,75.42
2022-11-14T02:54:54.310Z,75.42
2022-11-14T02:58:45.893Z,75.11
2022-11-14T03:03:17.001Z,75.35
2022-11-14T03:05:45.256Z,75.45
2022-11-14T03:07:14.658Z,75.35
2022-11-14T03:09:13.106Z,75.35
2022-11-14T03:10:42.117Z,75.56
2022-11-14T03:12:11.098Z,75.45
2022-11-14T03:13:40.262Z,75.25
2022-11-14T03:16:36.853Z,75.35
2022-11-14T03:18:06.270Z,75.25
2022-11-14T03:19:35.205Z,75.35
2022-11-14T03:21:34.466Z,75.35
2022-11-14T03:25:30.607Z,75.25
2022-11-14T03:27:00.380Z,75.35
2022-11-14T03:29:58.500Z,75.04
2022-11-14T03:31:27.616Z,74.94
2022-11-14T03:34:24.083Z,75.29
2022-11-14T03:41:42.924Z,75.29
2022-11-14T03:43:41.253Z,75.38
2022-11-14T03:45:40.868Z,75.29
2022-11-14T03:48:09.943Z,75.08
2022-11-14T03:51:37.128Z,74.98
2022-11-14T03:59:03.091Z,75.18
2022-11-14T04:01:01.407Z,75.29
2022-11-14T04:02:30.322Z,75.38
2022-11-14T04:06:25.982Z,75.29
2022-11-14T04:09:24.752Z,75.18
2022-11-14T04:10:54.648Z,75.18
2022-11-14T04:12:24.179Z,74.87
2022-11-14T04:20:23.440Z,75.21
2022-11-14T04:22:50.817Z,75.18
2022-11-14T04:40:42.118Z,75.52
2022-11-14T04:48:33.304Z,75.42
2022-11-14T04:51:59.974Z,75.21
2022-11-14T04:59:22.093Z,75.12
2022-11-14T05:06:42.115Z,75.12
2022-11-14T05:10:07.356Z,74.91
2022-11-14T05:19:53.934Z,74.60
2022-11-14T05:30:09.209Z,74.70
2022-11-14T05:33:05.810Z,74.70
2022-11-14T05:35:33.197Z,74.70
2022-11-14T05:37:31.577Z,74.60
2022-11-14T05:39:59.167Z,74.60
2022-11-14T05:48:47.182Z,74.80
2022-11-14T05:51:19.338Z,74.70
2022-11-14T05:54:15.802Z,74.70
2022-11-14T05:58:11.083Z,74.70
2022-11-14T06:00:46.513Z,74.70
2022-11-14T06:03:07.682Z,74.70
2022-11-14T06:05:06.099Z,74.50
2022-11-14T06:10:10.532Z,74.91
2022-11-14T06:13:36.572Z,74.80
2022-11-14T06:15:05.958Z,75.01
2022-11-14T06:16:35.067Z,75.12
2022-11-14T06:19:02.648Z,75.12
2022-11-14T06:20:31.912Z,75.12
2022-11-14T06:22:30.568Z,75.12
2022-11-14T06:23:59.484Z,75.21
2022-11-14T06:24:59.447Z,75.01
2022-11-14T06:25:59.497Z,75.12
2022-11-14T06:26:59.450Z,75.21
2022-11-14T06:29:56.178Z,75.21
2022-11-14T06:31:54.422Z,75.01
2022-11-14T06:35:08.263Z,75.12
2022-11-14T06:36:38.313Z,74.91
2022-11-14T06:46:56.316Z,75.15
2022-11-14T06:49:51.586Z,75.56
2022-11-14T06:51:20.718Z,75.35
2022-11-14T06:55:22.322Z,75.25
2022-11-14T06:56:48.001Z,75.25
2022-11-14T07:00:15.193Z,75.15
2022-11-14T07:03:15.105Z,75.15
2022-11-14T07:05:12.452Z,75.15
2022-11-14T07:07:40.099Z,75.25
2022-11-14T07:12:34.662Z,75.25
2022-11-14T07:23:30.891Z,75.56
2022-11-14T07:24:59.901Z,75.35
2022-11-14T07:27:28.779Z,75.25
2022-11-14T07:29:02.367Z,75.25
2022-11-14T07:32:56.524Z,75.25
2022-11-14T07:38:33.140Z,75.04
2022-11-14T07:41:31.300Z,75.25
2022-11-14T07:43:30.106Z,75.46
2022-11-14T07:44:59.305Z,75.12
2022-11-14T07:46:29.958Z,75.12
2022-11-14T07:53:07.204Z,75.42
2022-11-14T07:56:05.338Z,75.32
2022-11-14T07:58:04.084Z,75.21
2022-11-14T07:59:33.611Z,75.21
2022-11-14T08:02:30.791Z,75.32
2022-11-14T08:03:59.865Z,75.12
2022-11-14T08:05:58.498Z,75.42
2022-11-14T08:08:56.052Z,75.12
2022-11-14T08:10:55.014Z,75.21
2022-11-14T08:12:24.529Z,75.32
2022-11-14T08:13:53.899Z,75.21
2022-11-14T08:16:51.923Z,75.21
2022-11-14T08:18:20.651Z,74.98
2022-11-14T08:19:50.191Z,74.87
2022-11-14T08:21:19.467Z,74.67
2022-11-14T08:24:16.656Z,74.87
2022-11-14T08:26:44.684Z,74.77
2022-11-14T08:28:43.209Z,74.77
2022-11-14T08:30:12.614Z,74.57
2022-11-14T08:35:37.489Z,74.98
2022-11-14T08:38:24.888Z,74.98
2022-11-14T08:43:20.524Z,75.38
2022-11-14T08:44:20.533Z,75.18
2022-11-14T08:45:20.507Z,75.08
2022-11-14T08:48:18.228Z,74.94
2022-11-14T08:50:17.693Z,74.67
2022-11-14T08:52:17.182Z,74.98
2022-11-14T08:57:11.433Z,74.94
2022-11-14T09:02:53.879Z,74.84
2022-11-14T09:04:52.466Z,74.94
2022-11-14T09:06:50.673Z,74.84
2022-11-14T09:08:49.137Z,74.63
2022-11-14T09:10:18.487Z,74.60
2022-11-14T09:12:16.764Z,74.49
2022-11-14T09:13:46.951Z,74.49
2022-11-14T09:16:14.934Z,74.60
2022-11-14T09:18:19.497Z,74.60
2022-11-14T09:20:19.024Z,74.49
2022-11-14T09:22:48.015Z,74.60
2022-11-14T09:28:46.698Z,74.15
2022-11-14T09:33:42.323Z,74.36
2022-11-14T09:35:11.777Z,74.46
2022-11-14T09:37:42.668Z,74.05
2022-11-14T09:41:38.224Z,74.05
2022-11-14T09:43:36.480Z,73.91
2022-11-14T09:45:05.643Z,74.02
2022-11-14T09:48:03.584Z,74.02
2022-11-14T09:49:32.845Z,73.71
2022-11-14T09:52:29.407Z,74.02
2022-11-14T09:54:56.716Z,73.91
2022-11-14T09:57:24.906Z,73.88
2022-11-14T09:58:54.066Z,73.88
2022-11-14T10:00:52.634Z,73.68
2022-11-14T10:04:47.816Z,73.57
2022-11-14T10:07:15.441Z,73.57
2022-11-14T10:10:12.516Z,73.74
2022-11-14T10:12:11.398Z,73.85
2022-11-14T10:16:09.736Z,73.23
2022-11-14T10:21:33.230Z,72.61
2022-11-14T10:23:02.455Z,72.38
2022-11-14T10:29:06.680Z,72.17
2022-11-14T10:30:35.733Z,71.86
2022-11-14T10:32:04.913Z,72.07
2022-11-14T10:34:03.645Z,71.86
2022-11-14T10:44:23.848Z,71.94
2022-11-14T10:46:53.534Z,71.73
2022-11-14T10:48:22.513Z,71.70
2022-11-14T10:50:21.402Z,71.29
2022-11-14T10:51:51.779Z,71.49
2022-11-14T10:54:20.046Z,71.29
2022-11-14T10:58:50.111Z,70.98
2022-11-14T11:00:48.590Z,70.78
2022-11-14T11:03:17.296Z,70.13
2022-11-14T11:04:47.038Z,70.06
2022-11-14T11:08:41.452Z,70.57
2022-11-14T11:10:44.914Z,70.34
2022-11-14T11:12:13.922Z,70.34
2022-11-14T11:14:12.053Z,70.43
2022-11-14T11:17:09.124Z,70.23
2022-11-14T11:24:01.353Z,70.03
2022-11-14T11:25:31.973Z,70.43
2022-11-14T11:28:30.159Z,70.43
2022-11-14T11:29:58.245Z,70.00
2022-11-14T11:33:26.691Z,70.00
2022-11-14T11:35:24.488Z,69.79
2022-11-14T11:38:23.685Z,69.89
2022-11-14T11:42:08.730Z,70.00
2022-11-14T11:44:49.286Z,69.65
2022-11-14T11:48:45.480Z,69.48
2022-11-14T11:52:13.575Z,69.86
2022-11-14T11:55:23.269Z,69.65
2022-11-14T12:00:46.538Z,70.06
2022-11-14T12:03:43.489Z,69.82
2022-11-14T12:05:41.630Z,69.42
2022-11-14T12:10:11.248Z,69.42
2022-11-14T12:11:07.188Z,69.32
2022-11-14T12:12:07.217Z,69.08
2022-11-14T12:17:00.942Z,69.49
2022-11-14T12:18:59.552Z,69.38
2022-11-14T12:21:58.784Z,69.08
2022-11-14T12:23:25.545Z,68.57
2022-11-14T12:25:23.807Z,68.77
2022-11-14T12:29:23.993Z,68.77
2022-11-14T12:32:46.334Z,68.26
2022-11-14T12:36:41.875Z,67.96
2022-11-14T12:38:11.085Z,68.06
2022-11-14T12:39:40.095Z,68.06
2022-11-14T12:41:09.544Z,67.96
2022-11-14T12:42:42.847Z,68.30
2022-11-14T12:45:10.513Z,67.99
2022-11-14T12:46:39.550Z,67.99
2022-11-14T12:49:08.152Z,68.19
2022-11-14T12:50:37.297Z,68.30
2022-11-14T12:52:35.896Z,68.60
2022-11-14T12:55:04.622Z,68.91
2022-11-14T12:57:02.985Z,68.80
2022-11-14T12:59:30.249Z,68.80
2022-11-14T13:01:28.740Z,69.21
2022-11-14T13:02:57.997Z,69.32
2022-11-14T13:04:27.862Z,69.21
2022-11-14T13:05:57.561Z,68.88
2022-11-14T13:07:29.899Z,68.98
2022-11-14T13:10:03.193Z,69.18
2022-11-14T13:12:33.360Z,69.38
2022-11-14T13:14:03.761Z,69.59
2022-11-14T13:15:32.297Z,69.08
2022-11-14T13:17:01.789Z,69.38
2022-11-14T13:19:00.244Z,69.59
2022-11-14T13:20:29.404Z,69.49
2022-11-14T13:22:27.696Z,69.49
2022-11-14T13:23:57.120Z,69.49
2022-11-14T13:25:26.224Z,69.38
2022-11-14T13:27:39.169Z,69.49
2022-11-14T13:29:23.985Z,69.18
2022-11-14T13:31:52.567Z,69.59
2022-11-14T13:34:20.247Z,69.90
2022-11-14T13:35:50.549Z,69.90
2022-11-14T13:37:49.993Z,70.00
2022-11-14T13:40:47.761Z,69.69
2022-11-14T13:42:46.525Z,69.59
2022-11-14T13:44:15.798Z,69.79
2022-11-14T13:45:45.305Z,69.79
2022-11-14T13:47:14.185Z,69.90
2022-11-14T13:49:14.004Z,69.79
2022-11-14T13:50:13.986Z,69.79
2022-11-14T13:51:36.645Z,69.79
2022-11-14T13:52:15.044Z,69.69
2022-11-14T13:54:17.527Z,69.46
2022-11-14T13:57:10.975Z,69.76
2022-11-14T13:59:38.885Z,69.35
2022-11-14T14:04:07.823Z,69.46
2022-11-14T14:05:37.474Z,69.35
2022-11-14T14:10:37.880Z,69.76
2022-11-14T14:12:06.205Z,69.86
2022-11-14T14:13:34.928Z,69.86
2022-11-14T14:15:04.092Z,69.56
2022-11-14T14:16:33.499Z,69.69
2022-11-14T14:20:59.390Z,70.00
2022-11-14T14:22:28.733Z,70.20
2022-11-14T14:23:57.981Z,70.10
2022-11-14T14:25:56.161Z,70.40
2022-11-14T14:28:24.572Z,70.40
2022-11-14T14:29:55.092Z,70.61
2022-11-14T14:31:24.051Z,70.72
2022-11-14T14:33:22.779Z,70.51
2022-11-14T14:35:50.232Z,70.61
2022-11-14T14:43:13.830Z,70.27
2022-11-14T14:47:09.076Z,70.57
2022-11-14T14:48:38.416Z,70.07
2022-11-14T14:51:06.967Z,70.48
2022-11-14T14:53:35.008Z,70.37
2022-11-14T14:55:04.074Z,70.27
2022-11-14T14:56:33.884Z,70.37
2022-11-14T14:58:02.782Z,70.48
2022-11-14T14:59:31.986Z,70.37
2022-11-14T15:02:29.974Z,70.68
2022-11-14T15:10:48.941Z,70.48
2022-11-14T15:12:50.259Z,70.57
2022-11-14T15:14:17.887Z,70.48
2022-11-14T15:17:44.475Z,70.37
2022-11-14T15:21:39.534Z,70.27
2022-11-14T15:23:37.848Z,70.37
2022-11-14T15:26:06.167Z,70.68
2022-11-14T15:27:35.467Z,70.48
2022-11-14T15:30:02.879Z,70.17
2022-11-14T15:32:31.689Z,70.37
2022-11-14T15:34:01.039Z,70.57
2022-11-14T15:35:59.384Z,70.48
2022-11-14T15:37:58.248Z,70.78
2022-11-14T15:39:27.598Z,70.68
2022-11-14T15:40:56.691Z,70.68
2022-11-14T15:42:25.990Z,70.57
2022-11-14T15:47:11.974Z,70.68
2022-11-14T15:51:36.719Z,70.68
2022-11-14T15:54:05.199Z,70.98
2022-11-14T15:56:03.594Z,71.09
2022-11-14T15:57:32.881Z,70.78
2022-11-14T16:01:58.726Z,70.78
2022-11-14T16:03:27.924Z,70.98
2022-11-14T16:04:56.943Z,70.98
2022-11-14T16:07:24.842Z,70.98
2022-11-14T16:08:54.168Z,70.98
2022-11-14T16:11:50.929Z,71.19
2022-11-14T16:17:14.873Z,70.98
2022-11-14T16:21:41.891Z,71.29
2022-11-14T16:24:10.237Z,71.39
2022-11-14T16:26:38.125Z,71.39
2022-11-14T16:28:37.175Z,71.60
2022-11-14T16:30:35.895Z,71.39
2022-11-14T16:34:31.660Z,71.29
2022-11-14T16:37:29.526Z,71.09
2022-11-14T16:38:59.056Z,71.19
2022-11-14T16:40:58.197Z,71.19
2022-11-14T16:46:51.258Z,71.70
2022-11-14T16:48:21.114Z,71.50
2022-11-14T16:50:18.891Z,71.19
2022-11-14T16:53:19.123Z,71.09
2022-11-14T16:58:43.131Z,71.39
2022-11-14T17:00:12.742Z,71.15
2022-11-14T17:01:41.808Z,71.09
2022-11-14T17:04:09.386Z,70.98
2022-11-14T17:07:07.029Z,71.29
2022-11-14T17:09:05.268Z,71.39
2022-11-14T17:10:34.737Z,71.19
2022-11-14T17:12:03.725Z,71.26
2022-11-14T17:14:03.479Z,71.15
2022-11-14T17:15:32.605Z,71.15
2022-11-14T17:17:08.965Z,71.15
2022-11-14T17:18:35.634Z,70.95
2022-11-14T17:20:01.410Z,70.95
2022-11-14T17:22:29.311Z,71.06
2022-11-14T17:23:58.413Z,71.06
2022-11-14T17:25:27.451Z,71.15
2022-11-14T17:27:25.666Z,70.95
2022-11-14T17:30:22.799Z,71.15
2022-11-14T17:32:21.796Z,70.95
2022-11-14T17:33:51.403Z,70.95
2022-11-14T17:35:20.489Z,70.95
2022-11-14T17:36:49.573Z,70.95
2022-11-14T17:40:16.087Z,71.06
2022-11-14T17:41:45.915Z,71.46
2022-11-14T17:47:37.755Z,71.15
2022-11-14T17:52:31.000Z,71.36
2022-11-14T17:54:00.338Z,71.15
2022-11-14T17:57:57.144Z,71.36
2022-11-14T18:01:22.822Z,71.46
2022-11-14T18:05:29.444Z,71.77
2022-11-14T18:07:28.042Z,71.77
2022-11-14T18:08:57.051Z,71.67
2022-11-14T18:10:55.352Z,71.67
2022-11-14T18:12:24.520Z,71.87
2022-11-14T18:13:53.552Z,71.77
2022-11-14T18:15:27.567Z,71.87
2022-11-14T18:18:52.449Z,72.21
2022-11-14T18:20:21.696Z,72.31
2022-11-14T18:22:50.476Z,72.62
2022-11-14T18:24:18.814Z,72.62
2022-11-14T18:25:47.858Z,72.72
2022-11-14T18:27:17.199Z,72.72
2022-11-14T18:28:46.376Z,72.62
2022-11-14T18:30:39.902Z,72.62
2022-11-14T18:31:46.799Z,72.52
2022-11-14T18:33:16.244Z,72.62
2022-11-14T18:34:45.442Z,72.58
2022-11-14T18:37:14.007Z,72.72
2022-11-14T18:38:42.500Z,72.62
2022-11-14T18:40:16.266Z,72.72
2022-11-14T18:41:41.435Z,72.72
2022-11-14T18:43:39.810Z,72.92
2022-11-14T18:45:38.294Z,72.72
2022-11-14T18:48:06.262Z,72.82
2022-11-14T18:51:32.889Z,73.03
2022-11-14T18:52:33.064Z,72.92
2022-11-14T18:53:33.221Z,72.82
2022-11-14T18:54:33.066Z,72.92
2022-11-14T18:56:31.706Z,73.03
2022-11-14T18:59:28.028Z,73.23
2022-11-14T19:01:55.569Z,73.33
2022-11-14T19:07:18.731Z,73.33
2022-11-14T19:08:47.770Z,73.23
2022-11-14T19:10:46.478Z,73.43
2022-11-14T19:12:15.447Z,73.33
2022-11-14T19:13:45.834Z,73.43
2022-11-14T19:18:46.361Z,73.84
2022-11-14T19:20:44.406Z,74.05
2022-11-14T19:22:42.509Z,73.94
2022-11-14T19:24:41.000Z,73.84
2022-11-14T19:28:37.598Z,73.64
2022-11-14T19:32:05.823Z,73.74
2022-11-14T19:34:33.354Z,73.74
2022-11-14T19:38:28.820Z,73.84
2022-11-14T19:40:27.767Z,73.94
2022-11-14T19:41:56.690Z,74.05
2022-11-14T19:43:26.538Z,73.94
2022-11-14T19:46:23.754Z,74.15
2022-11-14T19:54:12.694Z,74.25
2022-11-14T19:56:11.180Z,74.25
2022-11-14T19:59:37.879Z,74.25
2022-11-14T20:03:03.601Z,74.35
2022-11-14T20:06:59.161Z,74.35
2022-11-14T20:08:57.858Z,74.25
2022-11-14T20:10:26.821Z,74.15
2022-11-14T20:12:55.035Z,74.15
2022-11-14T20:14:53.282Z,74.05
2022-11-14T20:24:45.140Z,73.54
2022-11-14T20:28:10.992Z,73.74
2022-11-14T20:29:40.600Z,73.54
2022-11-14T20:31:09.627Z,73.43
2022-11-14T20:35:36.106Z,73.33
2022-11-14T20:41:14.603Z,73.33
2022-11-14T20:45:11.153Z,73.64
2022-11-14T20:46:40.074Z,73.64
2022-11-14T20:50:09.236Z,73.74
2022-11-14T20:52:07.630Z,73.43
2022-11-14T20:55:19.387Z,73.54
2022-11-14T21:00:39.612Z,73.23
2022-11-14T21:04:05.502Z,73.16
2022-11-14T21:06:04.011Z,73.27
2022-11-14T21:07:03.663Z,73.36
2022-11-14T21:08:03.661Z,73.36
2022-11-14T21:13:11.271Z,73.47
2022-11-14T21:20:23.286Z,73.67
2022-11-14T21:24:30.358Z,73.36
2022-11-14T21:26:39.768Z,73.27
2022-11-14T21:33:59.852Z,73.81
2022-11-14T21:36:03.910Z,73.81
2022-11-14T21:40:22.772Z,74.01
2022-11-14T21:46:14.420Z,74.11
2022-11-14T21:49:12.218Z,74.15
2022-11-14T21:50:41.435Z,74.25
2022-11-14T21:52:10.838Z,74.15
2022-11-14T21:53:40.322Z,74.25
2022-11-14T21:57:09.940Z,74.25
2022-11-14T22:04:24.899Z,74.49
2022-11-14T22:08:20.122Z,74.90
2022-11-14T22:11:17.653Z,74.90
2022-11-14T22:16:43.629Z,74.93
2022-11-14T22:20:49.887Z,75.14
2022-11-14T22:22:48.661Z,75.24
2022-11-14T22:29:44.688Z,75.24
2022-11-14T22:34:09.207Z,75.45
2022-11-14T22:41:32.576Z,75.55
2022-11-14T22:45:25.092Z,75.45
2022-11-14T22:54:43.375Z,75.55
2022-11-14T22:58:09.124Z,75.41
2022-11-14T23:03:03.360Z,75.41
2022-11-14T23:05:02.426Z,75.31
2022-11-14T23:08:28.986Z,75.21
2022-11-14T23:14:20.563Z,75.21
2022-11-14T23:17:17.174Z,75.21
2022-11-14T23:22:15.715Z,75.31
2022-11-14T23:24:44.484Z,75.31
2022-11-14T23:27:12.763Z,75.31
2022-11-14T23:29:10.680Z,75.21
2022-11-14T23:31:08.860Z,75.21
2022-11-14T23:35:35.756Z,75.21
2022-11-14T23:37:35.423Z,75.31
2022-11-14T23:40:32.067Z,75.31
2022-11-14T23:42:30.228Z,75.51
2022-11-14T23:43:59.874Z,75.51
2022-11-14T23:48:24.265Z,75.51
2022-11-14T23:51:49.926Z,75.41
2022-11-14T23:54:17.130Z,75.41
